Airfield :
LOGIN :

Register | Disclaimer

   EN    FR    IT 

 










Legend :    VFR   Marginal VFR   IFR   Intensive IFR   Very Intensive IFR
Visi :
Ceiling :
>= 8 km
>= 3000ft
5 to 8 km
1000 to 3000 ft
1500m to 5 km
500 to 1000 ft
800 to 1500m
200 to 500 ft
< 800m
< 200 ft
Symbols :   Thunderstorms  Fog  Heavy snow  Heavy precipitations  Wind > 20 kt
SIGMETs :     Misc.  Thunderstorms  Icing  Turbulence  Mountain Waves  Volcanic Ashes






- Airport Elevation : 1830 ft


EBLB - Butgenbach Elsenborn

CURRENT METAR :
  • 051225Z AUTO 04007KT 9999 BKN019/// 01/M02 Q1025 WHT

EXPIRED METARs :
  • 051155Z AUTO 02007KT 9999 BKN017/// M00/M04 Q1025 WHT
  • 051143Z AUTO 05006KT 9999 BKN023/// 00/M03 Q1025 WHT
  • 051125Z AUTO 05008KT 9999 BKN014/// M00/M04 Q1025 GRN
  • 051055Z AUTO 04007KT 9999 OVC011/// M01/M03 Q1025 GRN
  • 051039Z AUTO //////KT 9999 FEW011/// OVC012/// M01/M03 Q1025 GRN
  • 051025Z AUTO //////KT 9999 FEW010/// OVC021/// M01/M03 Q1025 WHT
  • 051023Z AUTO //////KT 9999 FEW010/// OVC021/// M01/M03 Q1025 WHT
  • 050955Z AUTO //////KT 9999 OVC011/// M01/M03 Q1024 GRN

Expired Forecast.



MET'MAP, your aeronautical weather chart ! - Copyright ORBIFLY December 2007 - Disclaimer

ORBIFLY MET'MAP TEAM :

Programming & Development : Alexandra Zaïnal
Concept & original design : Baudouin d'Aumeries
Assistance for programming : Marc-Olivier Méhu
Technical & hardware support : Manuel Goepfert

Contact : metmap@orbifly.com




SOURCES & CREDITS :

   NOAA